createdAt,value
2022-11-05T00:01:55.371Z,93.70
2022-11-05T00:04:40.463Z,93.70
2022-11-05T00:07:36.460Z,93.70
2022-11-05T00:10:14.474Z,93.70
2022-11-05T00:12:59.666Z,93.70
2022-11-05T00:15:44.866Z,93.70
2022-11-05T00:18:11.511Z,93.70
2022-11-05T00:20:38.242Z,93.70
2022-11-05T00:23:24.226Z,93.60
2022-11-05T00:26:13.924Z,93.70
2022-11-05T00:28:43.656Z,93.70
2022-11-05T00:31:14.023Z,93.60
2022-11-05T00:33:42.562Z,93.60
2022-11-05T00:36:10.900Z,93.60
2022-11-05T00:38:37.794Z,93.50
2022-11-05T00:41:04.621Z,93.50
2022-11-05T00:43:49.935Z,93.50
2022-11-05T00:46:16.589Z,93.50
2022-11-05T00:49:01.999Z,93.60
2022-11-05T00:51:28.618Z,93.60
2022-11-05T00:53:55.275Z,93.70
2022-11-05T00:56:21.906Z,93.70
2022-11-05T00:58:48.850Z,93.70
2022-11-05T01:01:15.656Z,93.80
2022-11-05T01:03:45.135Z,93.80
2022-11-05T01:06:16.917Z,93.90
2022-11-05T01:08:45.239Z,93.90
2022-11-05T01:11:33.255Z,93.90
2022-11-05T01:14:07.516Z,93.90
2022-11-05T01:16:35.173Z,93.80
2022-11-05T01:19:03.350Z,93.80
2022-11-05T01:21:30.014Z,93.80
2022-11-05T01:23:56.742Z,93.80
2022-11-05T01:26:23.438Z,93.80
2022-11-05T01:28:54.186Z,93.80
2022-11-05T01:31:21.712Z,93.80
2022-11-05T01:33:48.502Z,93.80
2022-11-05T01:36:15.229Z,93.80
2022-11-05T01:38:41.942Z,93.80
2022-11-05T01:41:08.832Z,93.80
2022-11-05T01:44:02.040Z,93.80
2022-11-05T01:46:41.693Z,93.90
2022-11-05T01:49:21.508Z,93.90
2022-11-05T01:51:48.818Z,93.80
2022-11-05T01:54:22.893Z,93.80
2022-11-05T01:57:08.114Z,93.80
2022-11-05T01:59:39.229Z,93.90
2022-11-05T02:02:07.894Z,93.80
2022-11-05T02:04:36.226Z,93.80
2022-11-05T02:07:05.573Z,93.80
2022-11-05T02:09:41.117Z,93.90
2022-11-05T02:12:09.274Z,93.90
2022-11-05T02:14:35.950Z,93.90
2022-11-05T02:17:13.328Z,93.90
2022-11-05T02:20:10.757Z,93.90
2022-11-05T02:22:52.325Z,94.10
2022-11-05T02:25:24.664Z,94.10
2022-11-05T02:28:09.353Z,94.00
2022-11-05T02:30:54.096Z,94.00
2022-11-05T02:33:34.083Z,94.10
2022-11-05T02:36:31.211Z,94.10
2022-11-05T02:39:11.554Z,94.10
2022-11-05T02:41:48.068Z,94.00
2022-11-05T02:44:29.027Z,94.00
2022-11-05T02:47:02.922Z,93.90
2022-11-05T02:49:48.641Z,93.90
2022-11-05T02:52:36.258Z,93.90
2022-11-05T02:55:16.310Z,93.80
2022-11-05T02:57:47.749Z,93.80
2022-11-05T03:00:36.135Z,93.70
2022-11-05T03:03:05.591Z,93.70
2022-11-05T03:05:42.577Z,93.70
2022-11-05T03:08:21.065Z,93.60
2022-11-05T03:11:20.732Z,93.50
2022-11-05T03:14:19.422Z,93.50
2022-11-05T03:16:57.069Z,93.50
2022-11-05T03:19:48.781Z,93.50
2022-11-05T03:22:23.330Z,93.60
2022-11-05T03:24:56.127Z,93.60
2022-11-05T03:27:29.983Z,93.50
2022-11-05T03:30:01.890Z,93.60
2022-11-05T03:32:32.798Z,93.50
2022-11-05T03:35:05.257Z,93.50
2022-11-05T03:37:37.213Z,93.50
2022-11-05T03:40:07.432Z,93.50
2022-11-05T03:42:38.619Z,93.40
2022-11-05T03:45:13.819Z,93.40
2022-11-05T03:47:45.088Z,93.30
2022-11-05T03:50:34.746Z,93.30
2022-11-05T03:53:15.720Z,93.20
2022-11-05T03:56:01.855Z,93.20
2022-11-05T03:58:30.476Z,93.20
2022-11-05T04:01:00.984Z,93.20
2022-11-05T04:03:28.175Z,93.10
2022-11-05T04:06:15.230Z,93.10
2022-11-05T04:09:00.293Z,93.10
2022-11-05T04:11:45.570Z,93.00
2022-11-05T04:14:12.210Z,93.00
2022-11-05T04:16:57.404Z,92.90
2022-11-05T04:19:42.435Z,92.80
2022-11-05T04:22:27.859Z,92.80
2022-11-05T04:24:54.543Z,92.80
2022-11-05T04:27:21.159Z,92.80
2022-11-05T04:30:06.368Z,92.70
2022-11-05T04:32:33.002Z,92.80
2022-11-05T04:34:59.602Z,92.70
2022-11-05T04:37:26.199Z,92.70
2022-11-05T04:39:52.874Z,92.80
2022-11-05T04:42:19.509Z,92.90
2022-11-05T04:44:46.136Z,93.30
2022-11-05T04:47:12.769Z,93.00
2022-11-05T04:49:39.368Z,93.00
2022-11-05T04:52:05.988Z,93.10
2022-11-05T04:54:32.630Z,93.20
2022-11-05T04:56:59.279Z,93.20
2022-11-05T04:59:25.904Z,93.30
2022-11-05T05:01:53.051Z,93.30
2022-11-05T05:04:20.568Z,93.30
2022-11-05T05:06:47.242Z,93.30
2022-11-05T05:09:13.871Z,93.30
2022-11-05T05:11:41.020Z,93.30
2022-11-05T05:14:08.477Z,93.30
2022-11-05T05:16:35.100Z,93.60
2022-11-05T05:19:02.876Z,93.30
2022-11-05T05:21:38.982Z,93.20
2022-11-05T05:24:14.268Z,93.20
2022-11-05T05:26:43.700Z,93.20
2022-11-05T05:29:11.226Z,93.30
2022-11-05T05:31:38.456Z,93.20
2022-11-05T05:34:06.516Z,93.20
2022-11-05T05:36:33.615Z,93.20
2022-11-05T05:39:00.207Z,93.20
2022-11-05T05:41:27.019Z,93.20
2022-11-05T05:43:53.612Z,93.20
2022-11-05T05:46:20.224Z,93.20
2022-11-05T05:48:51.716Z,93.20
2022-11-05T05:51:19.262Z,93.30
2022-11-05T05:53:46.212Z,93.30
2022-11-05T05:56:14.910Z,93.30
2022-11-05T05:58:41.591Z,93.30
2022-11-05T06:01:18.845Z,93.40
2022-11-05T06:03:47.324Z,93.50
2022-11-05T06:06:15.629Z,93.40
2022-11-05T06:08:42.695Z,93.50
2022-11-05T06:11:09.519Z,93.50
2022-11-05T06:13:37.138Z,93.50
2022-11-05T06:16:08.743Z,93.50
2022-11-05T06:18:36.301Z,93.60
2022-11-05T06:21:07.803Z,93.60
2022-11-05T06:23:36.509Z,93.60
2022-11-05T06:26:12.113Z,93.50
2022-11-05T06:28:39.471Z,93.60
2022-11-05T06:31:06.416Z,93.60
2022-11-05T06:33:33.330Z,93.60
2022-11-05T06:36:04.343Z,93.70
2022-11-05T06:38:35.718Z,93.60
2022-11-05T06:41:07.219Z,93.70
2022-11-05T06:43:36.703Z,93.70
2022-11-05T06:46:04.018Z,93.70
2022-11-05T06:48:30.721Z,93.80
2022-11-05T06:50:57.749Z,93.80
2022-11-05T06:53:24.637Z,93.80
2022-11-05T06:55:51.235Z,93.90
2022-11-05T06:58:17.821Z,93.90
2022-11-05T07:00:44.601Z,94.00
2022-11-05T07:03:13.352Z,94.00
2022-11-05T07:05:43.426Z,94.00
2022-11-05T07:08:10.049Z,94.10
2022-11-05T07:10:36.634Z,94.10
2022-11-05T07:13:07.805Z,94.20
2022-11-05T07:15:36.429Z,94.30
2022-11-05T07:18:03.589Z,94.30
2022-11-05T07:20:33.955Z,94.30
2022-11-05T07:23:06.992Z,94.40
2022-11-05T07:25:34.468Z,94.50
2022-11-05T07:28:01.945Z,94.50
2022-11-05T07:30:29.049Z,94.50
2022-11-05T07:32:55.985Z,94.50
2022-11-05T07:35:22.709Z,94.50
2022-11-05T07:37:51.287Z,94.60
2022-11-05T07:40:21.681Z,94.70
2022-11-05T07:42:51.260Z,94.70
2022-11-05T07:45:18.568Z,94.70
2022-11-05T07:47:46.604Z,94.70
2022-11-05T07:50:13.604Z,94.70
2022-11-05T07:52:40.388Z,94.80
2022-11-05T07:55:07.616Z,94.80
2022-11-05T07:57:47.697Z,94.90
2022-11-05T08:00:17.357Z,95.00
2022-11-05T08:02:44.430Z,95.00
2022-11-05T08:05:11.400Z,95.10
2022-11-05T08:07:38.093Z,95.10
2022-11-05T08:10:05.098Z,95.20
2022-11-05T08:12:32.196Z,95.30
2022-11-05T08:14:59.142Z,95.30
2022-11-05T08:17:25.820Z,95.40
2022-11-05T08:19:52.498Z,95.50
2022-11-05T08:22:19.118Z,95.60
2022-11-05T08:24:46.007Z,95.60
2022-11-05T08:27:12.687Z,95.70
2022-11-05T08:29:39.354Z,95.80
2022-11-05T08:32:05.959Z,95.80
2022-11-05T08:34:32.612Z,95.90
2022-11-05T08:37:01.192Z,96.00
2022-11-05T08:39:27.897Z,96.10
2022-11-05T08:41:54.676Z,96.10
2022-11-05T08:44:21.332Z,96.10
2022-11-05T08:46:48.191Z,96.10
2022-11-05T08:49:14.816Z,96.10
2022-11-05T08:51:41.471Z,96.20
2022-11-05T08:54:08.073Z,96.20
2022-11-05T08:56:34.832Z,96.30
2022-11-05T08:59:01.447Z,96.40
2022-11-05T09:01:28.160Z,96.70
2022-11-05T09:03:54.865Z,97.20
2022-11-05T09:06:21.470Z,97.90
2022-11-05T09:08:48.230Z,98.60
2022-11-05T09:11:14.979Z,99.10
2022-11-05T09:13:41.881Z,99.20
2022-11-05T09:16:25.577Z,99.20
2022-11-05T09:18:52.692Z,99.20
2022-11-05T09:21:19.985Z,99.20
2022-11-05T09:23:46.953Z,99.00
2022-11-05T09:26:14.050Z,98.70
2022-11-05T09:28:40.922Z,98.30
2022-11-05T09:31:08.723Z,98.10
2022-11-05T09:33:37.445Z,98.10
2022-11-05T09:36:05.198Z,98.00
2022-11-05T09:38:34.694Z,97.70
2022-11-05T09:41:02.884Z,97.20
2022-11-05T09:43:51.562Z,96.90
2022-11-05T09:46:23.324Z,95.20
2022-11-05T09:48:55.259Z,95.30
2022-11-05T09:51:24.134Z,94.10
2022-11-05T09:53:51.747Z,93.50
2022-11-05T09:56:25.828Z,92.60
2022-11-05T09:59:01.800Z,91.00
2022-11-05T10:01:33.372Z,90.30
2022-11-05T10:04:05.712Z,90.50
2022-11-05T10:06:32.448Z,90.60
2022-11-05T10:09:07.517Z,90.40
2022-11-05T10:11:40.422Z,88.70
2022-11-05T10:14:15.112Z,87.40
2022-11-05T10:16:46.785Z,87.40
2022-11-05T10:19:24.483Z,87.20
2022-11-05T10:22:06.922Z,86.20
2022-11-05T10:24:34.162Z,86.50
2022-11-05T10:27:01.366Z,87.10
2022-11-05T10:29:32.325Z,86.80
2022-11-05T10:32:01.285Z,85.60
2022-11-05T10:34:32.010Z,86.10
2022-11-05T10:36:58.836Z,86.20
2022-11-05T10:39:27.639Z,86.20
2022-11-05T10:42:21.815Z,85.90
2022-11-05T10:44:57.601Z,84.70
2022-11-05T10:47:57.863Z,85.10
2022-11-05T10:50:27.563Z,84.80
2022-11-05T10:53:05.278Z,85.50
2022-11-05T10:55:35.130Z,84.80
2022-11-05T10:58:16.608Z,85.40
2022-11-05T11:01:06.069Z,84.40
2022-11-05T11:03:39.680Z,84.60
2022-11-05T11:06:26.126Z,84.80
2022-11-05T11:08:55.678Z,83.90
2022-11-05T11:11:41.341Z,85.60
2022-11-05T11:14:13.792Z,83.90
2022-11-05T11:16:44.779Z,84.50
2022-11-05T11:19:20.515Z,85.20
2022-11-05T11:21:54.388Z,84.90
2022-11-05T11:24:23.224Z,85.60
2022-11-05T11:26:49.931Z,85.20
2022-11-05T11:29:20.536Z,85.30
2022-11-05T11:31:47.336Z,84.60
2022-11-05T11:34:26.127Z,85.40
2022-11-05T11:36:56.222Z,85.10
2022-11-05T11:39:28.723Z,85.90
2022-11-05T11:42:00.119Z,85.20
2022-11-05T11:44:30.697Z,84.70
2022-11-05T11:47:08.934Z,84.50
2022-11-05T11:49:42.462Z,84.70
2022-11-05T11:52:13.851Z,84.60
2022-11-05T11:54:40.544Z,84.70
2022-11-05T11:57:22.814Z,85.30
2022-11-05T12:03:04.271Z,85.60
2022-11-05T12:05:58.308Z,85.20
2022-11-05T12:08:54.160Z,85.60
2022-11-05T12:11:48.789Z,86.00
2022-11-05T12:15:14.698Z,86.10
2022-11-05T12:18:03.403Z,86.40
2022-11-05T12:20:56.946Z,86.40
2022-11-05T12:23:42.291Z,86.40
2022-11-05T12:26:31.855Z,86.80
2022-11-05T12:29:35.511Z,86.10
2022-11-05T12:32:27.297Z,86.00
2022-11-05T12:35:44.119Z,85.10
2022-11-05T12:38:43.583Z,85.40
2022-11-05T12:41:27.737Z,85.70
2022-11-05T12:44:15.480Z,86.10
2022-11-05T12:47:02.502Z,86.00
2022-11-05T12:50:00.355Z,86.10
2022-11-05T12:52:55.565Z,86.40
2022-11-05T12:55:25.340Z,86.40
2022-11-05T12:57:54.723Z,86.60
2022-11-05T13:00:24.722Z,86.50
2022-11-05T13:03:10.384Z,86.60
2022-11-05T13:05:45.420Z,86.80
2022-11-05T13:08:32.473Z,86.40
2022-11-05T13:11:14.195Z,86.80
2022-11-05T13:13:58.301Z,86.30
2022-11-05T13:16:58.805Z,86.10
2022-11-05T13:19:30.907Z,86.10
2022-11-05T13:22:15.327Z,86.50
2022-11-05T13:24:51.008Z,86.10
2022-11-05T13:27:42.078Z,86.30
2022-11-05T13:30:17.838Z,86.20
2022-11-05T13:33:07.192Z,86.20
2022-11-05T13:35:45.058Z,86.20
2022-11-05T13:38:40.931Z,85.90
2022-11-05T13:41:29.136Z,85.80
2022-11-05T13:44:14.589Z,85.00
2022-11-05T13:46:44.167Z,85.30
2022-11-05T13:49:10.748Z,85.50
2022-11-05T13:51:43.364Z,85.60
2022-11-05T13:54:16.330Z,84.90
2022-11-05T13:56:42.901Z,84.30
2022-11-05T13:59:27.506Z,84.90
2022-11-05T14:01:58.010Z,84.10
2022-11-05T14:04:33.575Z,85.30
2022-11-05T14:07:15.472Z,83.80
2022-11-05T14:09:43.918Z,83.60
2022-11-05T14:12:25.419Z,84.60
2022-11-05T14:14:59.398Z,83.80
2022-11-05T14:17:31.292Z,84.00
2022-11-05T14:20:04.397Z,83.80
2022-11-05T14:22:31.002Z,83.00
2022-11-05T14:24:58.732Z,83.30
2022-11-05T14:27:25.316Z,82.90
2022-11-05T14:29:51.951Z,82.70
2022-11-05T14:32:21.605Z,82.50
2022-11-05T14:35:03.937Z,82.50
2022-11-05T14:37:42.105Z,82.10
2022-11-05T14:40:33.596Z,82.20
2022-11-05T14:43:04.576Z,82.10
2022-11-05T14:45:41.652Z,82.40
2022-11-05T14:48:29.311Z,81.60
2022-11-05T14:50:56.241Z,81.40
2022-11-05T14:53:33.604Z,82.20
2022-11-05T14:56:04.447Z,81.70
2022-11-05T14:58:37.313Z,82.10
2022-11-05T15:01:07.368Z,82.20
2022-11-05T15:03:34.065Z,82.30
2022-11-05T15:06:20.249Z,82.50
2022-11-05T15:08:49.819Z,82.10
2022-11-05T15:11:39.027Z,81.90
2022-11-05T15:14:17.976Z,81.80
2022-11-05T15:16:49.228Z,82.00
2022-11-05T15:19:21.916Z,82.30
2022-11-05T15:21:49.886Z,82.10
2022-11-05T15:24:19.107Z,82.50
2022-11-05T15:26:56.744Z,82.50
2022-11-05T15:29:28.057Z,82.50
2022-11-05T15:31:55.275Z,82.70
2022-11-05T15:34:21.948Z,83.10
2022-11-05T15:36:59.938Z,83.20
2022-11-05T15:39:39.844Z,82.90
2022-11-05T15:42:18.273Z,83.20
2022-11-05T15:44:51.751Z,83.30
2022-11-05T15:47:20.899Z,83.50
2022-11-05T15:49:54.892Z,83.70
2022-11-05T15:52:33.338Z,83.60
2022-11-05T15:55:24.011Z,83.80
2022-11-05T15:57:58.639Z,83.60
2022-11-05T16:00:28.009Z,83.90
2022-11-05T16:03:28.999Z,83.90
2022-11-05T16:05:56.326Z,83.80
2022-11-05T16:08:28.638Z,84.20
2022-11-05T16:11:00.308Z,84.30
2022-11-05T16:13:41.452Z,84.10
2022-11-05T16:16:14.448Z,83.90
2022-11-05T16:18:42.652Z,84.10
2022-11-05T16:21:15.196Z,84.20
2022-11-05T16:23:45.884Z,84.20
2022-11-05T16:26:55.909Z,84.40
2022-11-05T16:29:31.176Z,84.20
2022-11-05T16:32:01.121Z,84.30
2022-11-05T16:34:39.002Z,84.60
2022-11-05T16:37:11.308Z,84.40
2022-11-05T16:39:38.076Z,84.60
2022-11-05T16:42:22.978Z,84.90
2022-11-05T16:44:51.073Z,84.80
2022-11-05T16:47:18.424Z,84.90
2022-11-05T16:49:46.853Z,85.00
2022-11-05T16:52:13.876Z,85.10
2022-11-05T16:54:40.624Z,85.10
2022-11-05T16:57:32.731Z,85.10
2022-11-05T17:00:00.573Z,85.00
2022-11-05T17:02:27.558Z,85.20
2022-11-05T17:04:54.383Z,85.40
2022-11-05T17:07:21.070Z,85.50
2022-11-05T17:09:47.875Z,85.60
2022-11-05T17:12:15.232Z,85.80
2022-11-05T17:14:42.017Z,85.80
2022-11-05T17:17:08.668Z,85.90
2022-11-05T17:19:35.374Z,86.10
2022-11-05T17:22:02.291Z,86.30
2022-11-05T17:24:28.974Z,86.40
2022-11-05T17:26:55.550Z,86.50
2022-11-05T17:29:22.223Z,86.60
2022-11-05T17:31:49.091Z,86.80
2022-11-05T17:34:15.964Z,86.80
2022-11-05T17:36:42.625Z,86.90
2022-11-05T17:39:10.842Z,87.00
2022-11-05T17:41:37.488Z,87.00
2022-11-05T17:44:04.439Z,87.20
2022-11-05T17:46:31.162Z,87.20
2022-11-05T17:48:57.800Z,87.30
2022-11-05T17:51:24.669Z,87.50
2022-11-05T17:53:51.565Z,87.50
2022-11-05T17:56:29.195Z,87.60
2022-11-05T17:59:00.188Z,87.70
2022-11-05T18:01:32.589Z,87.70
2022-11-05T18:04:03.817Z,87.80
2022-11-05T18:06:35.721Z,87.90
2022-11-05T18:09:02.838Z,88.00
2022-11-05T18:11:29.441Z,88.10
2022-11-05T18:13:56.087Z,88.20
2022-11-05T18:16:22.740Z,88.20
2022-11-05T18:18:49.408Z,88.30
2022-11-05T18:21:16.098Z,88.40
2022-11-05T18:23:42.742Z,88.50
2022-11-05T18:26:14.164Z,88.60
2022-11-05T18:28:41.142Z,88.70
2022-11-05T18:31:22.299Z,88.70
2022-11-05T18:33:49.901Z,88.70
2022-11-05T18:36:25.153Z,88.80
2022-11-05T18:38:52.115Z,88.80
2022-11-05T18:41:20.186Z,88.80
2022-11-05T18:43:47.066Z,88.80
2022-11-05T18:46:35.873Z,88.90
2022-11-05T18:49:02.372Z,89.00
2022-11-05T18:51:29.098Z,89.00
2022-11-05T18:53:55.963Z,89.20
2022-11-05T18:56:23.464Z,89.30
2022-11-05T18:59:03.350Z,89.30
2022-11-05T19:01:39.578Z,89.40
2022-11-05T19:04:06.582Z,89.50
2022-11-05T19:06:33.892Z,89.50
2022-11-05T19:09:00.553Z,89.60
2022-11-05T19:11:27.665Z,89.60
2022-11-05T19:13:54.567Z,89.70
2022-11-05T19:16:24.680Z,89.60
2022-11-05T19:18:51.397Z,89.70
2022-11-05T19:21:22.061Z,89.80
2022-11-05T19:23:49.455Z,90.20
2022-11-05T19:26:24.152Z,89.90
2022-11-05T19:28:54.064Z,89.90
2022-11-05T19:31:23.524Z,90.00
2022-11-05T19:33:51.267Z,90.00
2022-11-05T19:36:20.506Z,90.00
2022-11-05T19:38:49.550Z,90.00
2022-11-05T19:41:21.454Z,90.00
2022-11-05T19:43:48.226Z,90.00
2022-11-05T19:46:17.870Z,90.00
2022-11-05T19:48:45.772Z,90.00
2022-11-05T19:51:32.753Z,90.00
2022-11-05T19:54:01.143Z,90.00
2022-11-05T19:56:29.868Z,90.00
2022-11-05T19:58:57.912Z,90.00
2022-11-05T20:01:26.868Z,89.90
2022-11-05T20:03:55.318Z,89.90
2022-11-05T20:06:28.410Z,89.90
2022-11-05T20:09:20.567Z,89.90
2022-11-05T20:11:44.956Z,89.90
2022-11-05T20:14:11.651Z,90.00
2022-11-05T20:16:38.993Z,90.00
2022-11-05T20:19:14.452Z,90.00
2022-11-05T20:21:41.474Z,90.00
2022-11-05T20:24:10.377Z,90.10
2022-11-05T20:26:37.039Z,90.10
2022-11-05T20:29:04.330Z,90.00
2022-11-05T20:31:31.039Z,90.10
2022-11-05T20:33:57.793Z,90.10
2022-11-05T20:36:25.825Z,90.10
2022-11-05T20:38:58.069Z,90.20
2022-11-05T20:41:26.892Z,90.20
2022-11-05T20:43:53.968Z,90.30
2022-11-05T20:46:22.154Z,90.20
2022-11-05T20:48:49.696Z,90.30
2022-11-05T20:51:19.065Z,90.30
2022-11-05T20:53:46.578Z,90.30
2022-11-05T20:56:18.339Z,90.30
2022-11-05T20:58:45.055Z,90.40
2022-11-05T21:01:13.478Z,90.40
2022-11-05T21:03:40.127Z,90.40
2022-11-05T21:06:07.561Z,90.50
2022-11-05T21:08:35.199Z,90.50
2022-11-05T21:11:02.568Z,90.50
2022-11-05T21:13:30.165Z,90.50
2022-11-05T21:15:59.360Z,90.60
2022-11-05T21:18:29.798Z,90.60
2022-11-05T21:20:56.453Z,90.60
2022-11-05T21:23:23.435Z,90.70
2022-11-05T21:25:50.105Z,90.70
2022-11-05T21:28:17.070Z,90.70
2022-11-05T21:30:45.608Z,90.80
2022-11-05T21:33:14.010Z,90.80
2022-11-05T21:35:46.044Z,90.90
2022-11-05T21:38:15.247Z,90.90
2022-11-05T21:40:42.409Z,91.00
2022-11-05T21:43:09.455Z,91.00
2022-11-05T21:45:39.431Z,91.00
2022-11-05T21:48:07.276Z,91.00
2022-11-05T21:50:52.772Z,91.00
2022-11-05T21:53:38.478Z,91.10
2022-11-05T21:56:36.115Z,91.10
2022-11-05T21:59:21.879Z,91.10
2022-11-05T22:01:48.847Z,91.10
2022-11-05T22:04:16.362Z,91.20
2022-11-05T22:06:42.998Z,91.20
2022-11-05T22:09:09.593Z,91.20
2022-11-05T22:11:37.415Z,91.20
2022-11-05T22:14:04.447Z,91.20
2022-11-05T22:16:31.071Z,91.20
2022-11-05T22:18:58.718Z,91.20
2022-11-05T22:21:25.363Z,91.20
2022-11-05T22:23:52.846Z,91.30
2022-11-05T22:26:19.871Z,91.30
2022-11-05T22:28:46.567Z,91.40
2022-11-05T22:31:14.466Z,91.30
2022-11-05T22:33:41.326Z,91.30
2022-11-05T22:36:08.498Z,91.30
2022-11-05T22:38:35.514Z,91.30
2022-11-05T22:41:08.861Z,91.30
2022-11-05T22:43:35.860Z,91.30
2022-11-05T22:46:10.928Z,91.30
2022-11-05T22:48:38.854Z,91.30
2022-11-05T22:51:07.362Z,91.30
2022-11-05T22:53:35.661Z,91.30
2022-11-05T22:56:07.169Z,91.30
2022-11-05T22:58:34.208Z,91.40
2022-11-05T23:01:01.368Z,91.40
2022-11-05T23:03:30.722Z,91.70
2022-11-05T23:06:03.365Z,91.30
2022-11-05T23:08:49.775Z,91.30
2022-11-05T23:11:40.528Z,91.30
2022-11-05T23:14:09.874Z,91.60
2022-11-05T23:16:55.495Z,91.30
2022-11-05T23:19:41.320Z,91.30
2022-11-05T23:22:31.484Z,91.20
2022-11-05T23:24:58.110Z,91.50
2022-11-05T23:27:28.439Z,91.20
2022-11-05T23:30:03.435Z,91.20
2022-11-05T23:32:31.754Z,91.10
2022-11-05T23:34:59.248Z,91.20
2022-11-05T23:37:47.005Z,91.10
2022-11-05T23:40:17.034Z,91.10
2022-11-05T23:43:03.167Z,91.10
2022-11-05T23:45:49.539Z,91.10
2022-11-05T23:48:27.727Z,91.10
2022-11-05T23:51:09.956Z,91.00
2022-11-05T23:53:39.841Z,91.10
2022-11-05T23:56:12.608Z,91.10
2022-11-05T23:58:40.426Z,91.10
